Terminal Aerodrome Forecast
Issued by NWS

Current Version | Previous Version | Text Only | Print | Product List | Glossary On
Versions: 1 2 3 4 5 6 7 8 9 10 11 12 13 14 15 16 17 18 19 20 21 22 23 24 25 26 27 28 29
000
FTUS42 KGSP 020100 AAA
TAFGMU
TAF AMD
KGMU 020108Z 0201/0224 03010KT P6SM BKN010 OVC015
     FM020700 04007KT 6SM BR OVC008
     FM021400 05006KT P6SM BKN015
     FM021600 05006KT P6SM BKN021
     FM021800 05007KT P6SM OVC035 PROB30 0218/0222 4SM TSRA OVC025CB
     FM022200 05007KT P6SM OVC050=

USA.gov is the U.S. government's official web portal to all federal, state and local government web resources and services.